Latest Weather Observations for Albion Park

IDN60801

Issued at 9:33 am EST Wednesday 22 September 2021 (issued every 10 minutes, with the page automatically refreshed every 10 minutes)

About weather observations | Map of weather stations | Latest weather observations for NSW | Other Formats
Station Details ID: 068241 Name: SHELLHARBOUR AIRPORT Lat: -34.56 Lon: 150.79 Height: 8.0 m
Data from the previous 72 hours. | See also: Recent months at Albion Park
Date/Time
EST
Temp
°C
App
Temp
°C
Dew
Point
°C
Rel
Hum
%
Delta-T
°C
Wind Press
QNH
hPa
Press
MSL
hPa
Rain since
9am
mm
Dir  Spd
km/h
Gust
km/h
Spd
kts
Gust
kts
22/09:30am 16.7 11.9 4.7 45 5.6 SSW 19 28 10 15 1023.7 1023.7 0.0
22/09:00am 16.1 11.1 4.8 47 5.3 S 20 28 11 15 1023.7 1023.7 0.0
22/08:30am 15.5 11.1 4.8 49 5.0 S 17 26 9 14 1023.7 1023.7 0.0
22/08:00am 13.9 10.0 3.4 49 4.7 W 13 19 7 10 1023.6 1023.6 0.0
22/07:30am 12.9 9.1 3.8 54 4.1 W 13 19 7 10 1023.5 1023.5 0.0
22/07:00am 11.5 6.8 3.3 57 3.6 WSW 17 24 9 13 1023.5 1023.5 0.0
22/06:30am 9.8 5.5 3.3 64 2.8 WSW 15 19 8 10 1023.2 1023.2 0.0
22/06:00am 8.9 4.2 2.9 66 2.5 WSW 17 22 9 12 1023.0 1023.0 0.0
22/05:30am 9.0 3.8 2.6 64 2.7 WSW 19 20 10 11 1023.0 1023.0 0.0
22/05:00am 9.5 3.8 2.8 63 2.8 WSW 22 26 12 14 1022.6 1022.6 0.0
22/04:30am 9.8 4.2 3.5 65 2.7 WSW 22 26 12 14 1022.4 1022.4 0.0
22/04:00am 8.9 4.4 4.1 72 2.1 WSW 17 24 9 13 1022.4 1022.4 0.0
22/03:30am 8.8 5.1 4.6 75 1.9 SW 13 17 7 9 1022.4 1022.4 0.0
22/03:00am 8.1 4.7 4.1 76 1.7 WSW 11 13 6 7 1022.4 1022.4 0.0
22/02:30am 7.9 4.1 3.9 76 1.7 WSW 13 17 7 9 1022.7 1022.7 0.0
22/02:00am 8.8 5.5 4.4 74 1.9 W 11 13 6 7 1023.1 1023.1 0.0
22/01:30am 10.6 7.0 5.2 69 2.5 WSW 13 20 7 11 1023.5 1023.5 0.0
22/01:00am 11.3 7.8 5.6 68 2.6 SW 13 20 7 11 1023.7 1023.7 0.0
22/12:30am 11.4 8.8 5.9 69 2.6 SSW 9 13 5 7 1023.9 1023.9 0.0
22/12:00am 11.9 8.9 6.0 67 2.7 SSW 11 19 6 10 1024.0 1024.0 0.0
 
Date/Time
EST
Temp
°C
App
Temp
°C
Dew
Point
°C
Rel
Hum
%
Delta-T
°C
Wind Press
QNH
hPa
Press
MSL
hPa
Rain since
9am
mm
Dir  Spd
km/h
Gust
km/h
Spd
kts
Gust
kts
21/11:30pm 12.4 8.7 6.5 67 2.8 SSW 15 19 8 10 1023.9 1023.9 0.0
21/11:00pm 12.5 9.5 5.9 64 3.1 SSW 11 15 6 8 1023.8 1023.8 0.0
21/10:30pm 12.7 8.9 5.6 62 3.3 SSW 15 24 8 13 1023.8 1023.8 0.0
21/10:00pm 13.0 9.9 5.7 61 3.4 SSW 11 15 6 8 1023.7 1023.7 0.0
21/09:30pm 13.0 9.9 5.7 61 3.4 SW 11 20 6 11 1023.9 1023.9 0.0
21/09:00pm 11.7 9.1 6.0 68 2.7 WNW 9 19 5 10 1023.7 1023.7 0.0
21/08:30pm 11.6 10.6 5.7 67 2.7 CALM 0 7 0 4 1022.9 1022.9 0.0
21/08:00pm 12.3 10.5 5.5 63 3.1 SSW 4 13 2 7 1022.4 1022.4 0.0
21/07:30pm 12.9 9.4 5.6 61 3.4 SW 13 26 7 14 1022.4 1022.4 0.0
21/07:00pm 13.0 9.1 5.4 60 3.5 SW 15 22 8 12 1021.8 1021.8 0.0
21/06:30pm 13.1 10.4 5.5 60 3.6 WSW 9 17 5 9 1021.3 1021.3 0.0
21/06:00pm 13.2 10.1 5.6 60 3.6 SSE 11 20 6 11 1020.7 1020.7 0.0
21/05:30pm 13.9 10.0 5.3 56 4.0 S 15 24 8 13 1020.3 1020.3 0.0
21/05:00pm 14.2 8.2 5.3 55 4.2 S 26 41 14 22 1019.7 1019.7 0.0
21/04:30pm 15.3 8.0 4.4 48 5.1 S 32 46 17 25 1019.3 1019.3 0.0
21/04:00pm 16.0 9.8 4.1 45 5.5 S 26 35 14 19 1018.9 1018.9 0.0
21/03:30pm 16.4 9.2 2.8 40 6.2 S 30 46 16 25 1018.6 1018.6 0.0
21/03:00pm 16.5 6.9 1.4 36 6.6 S 41 56 22 30 1018.4 1018.4 0.0
21/02:30pm 15.1 5.5 0.9 38 6.1 S 41 59 22 32 1018.1 1018.1 0.0
21/02:00pm 15.7 7.3 1.8 39 6.1 SSW 35 56 19 30 1018.0 1018.0 0.0
21/01:39pm 16.1 7.0 1.8 38 6.3 SSW 39 57 21 31 1017.9 1017.9 0.0
21/01:30pm 16.2 6.2 1.9 38 6.4 SSW 44 61 24 33 1018.0 1018.0 0.0
21/01:25pm 16.2 6.8 2.6 40 6.1 SSW 41 67 22 36 1017.9 1017.9 0.0
21/01:22pm 16.1 7.4 3.9 44 5.6 SSW 39 67 21 36 1017.9 1017.9 0.0
21/01:00pm 16.1 6.4 2.9 41 6.0 S 43 65 23 35 1017.5 1017.5 0.0
21/12:30pm 15.9 7.4 1.2 37 6.4 S 35 61 19 33 1017.4 1017.4 0.0
21/12:15pm 16.2 7.1 1.9 38 6.4 S 39 57 21 31 1017.4 1017.4 0.0
21/12:09pm 15.5 6.6 0.9 37 6.3 S 37 52 20 28 1017.3 1017.3 0.0
21/12:00pm 16.0 7.8 0.2 34 6.7 SSW 33 50 18 27 1017.4 1017.4 0.0
21/11:45am 16.0 7.8 0.6 35 6.6 SSW 33 52 18 28 1017.4 1017.4 0.0
21/11:30am 16.2 7.6 0.3 34 6.8 SSW 35 50 19 27 1017.4 1017.4 0.0
21/11:04am 15.7 7.5 0.3 35 6.6 SSW 33 52 18 28 1017.3 1017.3 0.0
21/11:00am 15.4 6.8 0.0 35 6.5 SSW 35 52 19 28 1017.3 1017.3 0.0
21/10:30am 15.2 7.1 -0.5 34 6.6 SSW 32 50 17 27 1016.9 1016.9 0.0
21/10:13am 15.0 7.0 0.1 36 6.3 SSW 32 50 17 27 1017.0 1017.0 0.0
21/10:00am 14.4 6.7 -0.1 37 6.1 SSW 30 46 16 25 1017.0 1017.0 0.0
21/09:30am 13.8 6.5 0.1 39 5.7 SSW 28 46 15 25 1016.6 1016.6 0.0
21/09:21am 13.3 5.9 -0.7 38 5.7 SSW 28 46 15 25 1016.7 1016.7 0.0
21/09:00am 12.9 4.8 -0.4 40 5.4 SSW 32 46 17 25 1016.5 1016.5 0.0
21/08:58am 12.8 4.7 -0.4 40 5.4 SSW 32 46 17 25 1016.5 1016.5 0.0
21/08:30am 12.3 7.1 0.1 43 5.0 SW 17 28 9 15 1016.4 1016.4 0.0
21/08:00am 11.2 5.3 -0.6 44 4.7 SW 20 35 11 19 1015.8 1015.8 0.0
21/07:30am 10.4 3.9 0.4 50 4.1 WSW 24 35 13 19 1015.2 1015.2 0.0
21/07:00am 9.7 4.2 0.3 52 3.8 W 19 33 10 18 1014.6 1014.6 0.0
21/06:30am 8.7 3.2 0.9 58 3.2 W 19 28 10 15 1014.0 1014.0 0.0
21/06:00am 8.3 1.5 1.0 60 2.9 W 26 32 14 17 1013.7 1013.7 0.0
21/05:30am 8.9 2.1 1.1 58 3.2 W 26 35 14 19 1013.3 1013.3 0.0
21/05:00am 9.4 2.3 1.3 57 3.3 W 28 35 15 19 1013.0 1013.0 0.0
21/04:30am 9.7 4.7 1.6 57 3.4 WSW 17 35 9 19 1012.6 1012.6 0.0
21/04:00am 9.4 7.8 2.3 61 3.0 CALM 0 17 0 9 1012.6 1012.6 0.0
21/03:30am 9.9 8.4 3.2 63 2.9 CALM 0 0 0 0 1012.7 1012.7 0.0
21/03:00am 9.6 8.2 3.4 65 2.7 CALM 0 0 0 0 1013.0 1013.0 0.0
21/02:30am 9.8 8.5 4.2 68 2.5 CALM 0 0 0 0 1012.8 1012.8 0.0
21/02:00am 7.0 5.6 3.4 78 1.5 CALM 0 0 0 0 1013.0 1013.0 0.0
21/01:30am 7.6 4.5 3.8 77 1.6 W 9 13 5 7 1013.3 1013.3 0.0
21/01:00am 7.2 4.4 3.4 77 1.6 SSW 7 11 4 6 1013.1 1013.1 0.0
21/12:30am 9.0 6.5 3.6 69 2.3 SE 6 7 3 4 1013.5 1013.5 0.0
21/12:00am 10.6 7.6 3.9 63 3.0 SW 9 20 5 11 1013.7 1013.7 0.0
 
Date/Time
EST
Temp
°C
App
Temp
°C
Dew
Point
°C
Rel
Hum
%
Delta-T
°C
Wind Press
QNH
hPa
Press
MSL
hPa
Rain since
9am
mm
Dir  Spd
km/h
Gust
km/h
Spd
kts
Gust
kts
20/11:30pm 10.3 8.3 4.2 66 2.7 W 4 9 2 5 1013.6 1013.6 0.0
20/11:00pm 11.3 7.5 3.8 60 3.3 W 13 20 7 11 1013.8 1013.8 0.0
20/10:30pm 11.7 7.9 3.7 58 3.6 SW 13 19 7 10 1013.6 1013.6 0.0
20/10:00pm 12.1 7.1 3.6 56 3.8 WSW 19 28 10 15 1013.2 1013.2 0.0
20/09:30pm 12.3 7.2 3.3 54 4.0 SW 19 30 10 16 1013.2 1013.2 0.0
20/09:00pm 12.8 7.1 2.9 51 4.4 W 22 35 12 19 1012.9 1012.9 0.0
20/08:30pm 12.5 6.0 2.9 52 4.2 WSW 26 39 14 21 1013.0 1013.0 0.0
20/08:19pm 12.5 5.7 2.9 52 4.2 WSW 28 46 15 25 1013.0 1013.0 0.0
20/08:00pm 12.5 4.7 2.7 51 4.3 WSW 33 46 18 25 1012.6 1012.6 0.0
20/07:31pm 12.6 2.8 2.5 50 4.4 WSW 43 61 23 33 1012.1 1012.1 0.0
20/07:30pm 12.6 2.7 2.5 50 4.4 WSW 44 61 24 33 1012.1 1012.1 0.0
20/07:03pm 13.0 2.9 1.7 46 4.9 W 44 63 24 34 1011.4 1011.4 0.0
20/07:00pm 13.0 2.5 1.7 46 4.9 W 46 63 25 34 1011.4 1011.4 0.0
20/06:30pm 12.3 -0.4 3.0 53 4.1 WSW 59 80 32 43 1011.5 1011.5 0.0
20/06:01pm 12.7 2.2 3.6 54 4.1 WSW 48 69 26 37 1011.1 1011.1 0.0
20/06:00pm 12.7 2.2 3.6 54 4.1 WSW 48 63 26 34 1011.2 1011.2 0.0
20/05:31pm 14.8 4.7 5.9 55 4.3 WSW 48 70 26 38 1010.7 1010.7 0.0
20/05:30pm 14.9 5.3 6.2 56 4.2 WSW 46 63 25 34 1010.7 1010.7 0.0
20/05:03pm 17.5 7.7 7.0 50 5.2 WSW 48 69 26 37 1009.6 1009.6 0.0
20/05:00pm 17.9 8.5 7.3 50 5.3 WSW 46 63 25 34 1009.5 1009.5 0.0
20/04:30pm 21.1 10.9 5.1 35 7.9 WSW 48 67 26 36 1008.3 1008.3 0.0
20/04:00pm 23.4 11.8 1.7 24 10.2 W 52 74 28 40 1007.1 1007.1 0.0
20/03:31pm 24.2 14.0 1.2 22 10.8 W 44 63 24 34 1006.8 1006.8 0.0
20/03:30pm 24.2 13.6 0.5 21 10.9 WNW 46 63 25 34 1006.8 1006.8 0.0
20/03:00pm 24.6 15.1 1.5 22 10.9 W 41 59 22 32 1007.0 1007.0 0.0
20/02:34pm 24.8 14.8 1.0 21 11.1 W 43 65 23 35 1006.9 1006.9 0.0
20/02:30pm 25.0 14.5 1.2 21 11.2 W 46 59 25 32 1007.1 1007.1 0.0
20/02:10pm 24.8 14.5 0.3 20 11.3 W 44 63 24 34 1007.3 1007.3 0.0
20/02:00pm 24.7 13.5 -0.4 19 11.5 WNW 48 65 26 35 1007.5 1007.5 0.0
20/01:30pm 25.5 16.2 0.9 20 11.5 W 39 57 21 31 1007.9 1007.9 0.0
20/01:00pm 25.0 14.9 0.5 20 11.4 WNW 43 65 23 35 1008.3 1008.3 0.0
20/12:30pm 25.0 15.8 1.2 21 11.2 W 39 57 21 31 1008.9 1008.9 0.0
20/12:00pm 24.7 14.7 0.9 21 11.1 WNW 43 61 23 33 1009.5 1009.5 0.0
20/11:33am 24.6 15.2 2.1 23 10.7 W 41 59 22 32 1010.1 1010.1 0.0
20/11:30am 24.5 14.7 2.0 23 10.7 W 43 59 23 32 1010.0 1010.0 0.0
20/11:10am 24.4 15.0 2.5 24 10.5 WNW 41 59 22 32 1010.4 1010.4 0.0
20/11:00am 24.1 13.9 1.1 22 10.7 WNW 44 61 24 33 1010.6 1010.6 0.0
20/10:33am 23.7 18.2 2.0 24 10.3 NNW 20 59 11 32 1010.9 1010.9 0.0
20/10:30am 23.0 19.0 5.0 31 9.0 N 15 28 8 15 1011.3 1011.3 0.0
20/10:00am 21.0 19.6 3.7 32 8.3 CALM 0 0 0 0 1011.7 1011.7 0.0
20/09:30am 19.7 15.8 3.4 34 7.7 N 13 20 7 11 1012.5 1012.5 0.0
20/09:00am 18.4 15.1 4.6 40 6.6 N 11 17 6 9 1013.0 1013.0 0.0
20/08:30am 16.6 12.5 4.6 45 5.7 NNW 15 19 8 10 1013.6 1013.6 0.0
20/08:00am 14.8 12.7 8.1 64 3.4 WNW 9 15 5 8 1014.0 1014.0 0.0
20/07:30am 11.6 10.2 7.1 74 2.2 SW 4 9 2 5 1014.1 1014.1 0.0
20/07:00am 9.0 7.4 6.3 83 1.2 SW 4 7 2 4 1014.3 1014.3 0.0
20/06:30am 7.0 5.2 5.3 89 0.8 WSW 4 7 2 4 1014.3 1014.3 0.0
20/06:00am 6.1 4.5 4.7 91 0.6 WSW 2 7 1 4 1014.2 1014.2 0.0
20/05:30am 6.0 4.4 4.3 89 0.7 NW 2 6 1 3 1014.3 1014.3 0.0
20/05:00am 6.8 5.2 4.6 86 1.0 W 2 7 1 4 1014.3 1014.3 0.0
20/04:30am 7.3 4.5 5.1 86 1.0 WSW 9 15 5 8 1014.4 1014.4 0.0
20/04:00am 6.2 4.6 4.7 90 0.6 WSW 2 7 1 4 1014.6 1014.6 0.0
20/03:30am 6.5 5.5 5.6 94 0.4 CALM 0 0 0 0 1014.9 1014.9 0.0
20/03:00am 6.0 4.6 5.3 95 0.3 WSW 2 7 1 4 1015.0 1015.0 0.0
20/02:30am 6.1 5.0 5.2 94 0.4 CALM 0 0 0 0 1015.5 1015.5 0.0
20/02:00am 5.9 4.8 4.9 93 0.4 CALM 0 0 0 0 1016.1 1016.1 0.0
20/01:30am 6.0 4.8 4.8 92 0.5 CALM 0 0 0 0 1016.5 1016.5 0.0
20/01:00am 6.6 5.5 5.2 91 0.6 CALM 0 0 0 0 1017.0 1017.0 0.0
20/12:30am 7.1 6.1 5.6 90 0.7 CALM 0 0 0 0 1017.5 1017.5 0.0
20/12:00am 7.3 6.2 5.3 87 0.9 CALM 0 0 0 0 1017.7 1017.7 0.0
 
Date/Time
EST
Temp
°C
App
Temp
°C
Dew
Point
°C
Rel
Hum
%
Delta-T
°C
Wind Press
QNH
hPa
Press
MSL
hPa
Rain since
9am
mm
Dir  Spd
km/h
Gust
km/h
Spd
kts
Gust
kts
19/11:30pm 7.6 6.5 5.2 85 1.1 CALM 0 0 0 0 1018.0 1018.0 0.0
19/11:00pm 7.9 6.9 5.4 84 1.1 CALM 0 0 0 0 1018.2 1018.2 0.0
19/10:30pm 8.5 7.5 5.6 82 1.3 CALM 0 0 0 0 1018.5 1018.5 0.0
19/10:00pm 8.9 7.1 5.6 80 1.5 WSW 4 7 2 4 1018.7 1018.7 0.0
19/09:30pm 9.4 7.2 5.4 76 1.8 WSW 6 7 3 4 1018.8 1018.8 0.0
19/09:00pm 10.8 8.7 5.8 71 2.3 W 6 9 3 5 1018.9 1018.9 0.0
19/08:30pm 11.4 9.2 5.5 67 2.7 WSW 6 9 3 5 1019.0 1019.0 0.0
19/08:00pm 12.2 9.9 5.8 65 3.0 WSW 7 11 4 6 1019.0 1019.0 0.0
19/07:30pm 13.4 10.6 5.1 57 3.9 SW 9 15 5 8 1018.8 1018.8 0.0
19/07:00pm 14.9 11.3 4.9 51 4.7 W 13 24 7 13 1018.6 1018.6 0.0
19/06:30pm 16.7 11.7 3.7 42 6.0 W 19 24 10 13 1018.1 1018.1 0.0
19/06:00pm 17.7 13.1 3.6 39 6.6 W 17 24 9 13 1017.8 1017.8 0.0
19/05:30pm 18.6 14.0 3.6 37 7.0 W 17 24 9 13 1017.7 1017.7 0.0
19/05:00pm 20.3 15.7 3.5 33 8.0 W 17 24 9 13 1017.4 1017.4 0.0
19/04:30pm 21.3 15.2 3.0 30 8.7 W 24 35 13 19 1017.0 1017.0 0.0
19/04:00pm 22.0 14.6 4.1 31 8.7 W 32 43 17 23 1016.9 1016.9 0.0
19/03:30pm 22.2 14.4 2.8 28 9.2 W 33 44 18 24 1016.6 1016.6 0.0
19/03:09pm 22.1 15.4 3.7 30 8.9 W 28 46 15 25 1016.4 1016.4 0.0
19/03:00pm 21.2 16.7 4.3 33 8.2 W 17 24 9 13 1016.6 1016.6 0.0
19/02:30pm 22.5 14.7 2.6 27 9.4 WNW 33 50 18 27 1016.9 1016.9 0.0
19/02:12pm 22.3 13.6 1.9 26 9.5 WNW 37 57 20 31 1017.0 1017.0 0.0
19/02:00pm 21.3 15.2 3.0 30 8.6 W 24 35 13 19 1017.1 1017.1 0.0
19/01:30pm 23.0 16.7 4.0 29 9.3 W 26 35 14 19 1017.4 1017.4 0.0
19/01:24pm 22.8 16.2 4.3 30 9.1 WNW 28 46 15 25 1017.5 1017.5 0.0
19/01:20pm 22.5 15.3 0.9 24 9.9 WNW 28 46 15 25 1017.5 1017.5 0.0
19/01:00pm 21.9 12.9 2.6 28 9.1 W 39 57 21 31 1017.8 1017.8 0.0
19/12:31pm 21.8 15.1 3.5 30 8.8 W 28 46 15 25 1018.2 1018.2 0.0
19/12:30pm 21.7 14.1 2.9 29 8.9 W 32 46 17 25 1018.2 1018.2 0.0
19/12:00pm 21.8 14.4 3.9 31 8.6 W 32 44 17 24 1018.8 1018.8 0.0
19/11:30am 20.9 13.9 4.0 33 8.1 W 30 48 16 26 1019.6 1019.6 0.0
19/11:17am 20.9 13.9 4.0 33 8.1 WNW 30 48 16 26 1019.7 1019.7 0.0
19/11:00am 20.6 12.3 4.2 34 7.9 W 37 50 20 27 1020.1 1020.1 0.0
19/10:30am 20.2 12.8 3.9 34 7.8 WSW 32 50 17 27 1020.5 1020.5 0.0
19/10:21am 19.9 13.2 3.6 34 7.7 W 28 50 15 27 1020.5 1020.5 0.0
19/10:00am 19.7 13.3 3.4 34 7.7 WNW 26 43 14 23 1020.8 1020.8 0.0

Other formats

Comma delimited format used in spreadsheet applications
http://www.bom.gov.au/fwo/IDN60801/IDN60801.95748.axf

JavaScript Object Notation format (JSON) in row-major order
http://www.bom.gov.au/fwo/IDN60801/IDN60801.95748.json

Data quality

Most of these data are generated automatically and are frequently updated. Quality checks on data are not normally performed. It is possible for incorrect values to appear. Refer to information at About Latest Weather Observations and please check the disclaimer before using these data.